createdAt,value
2023-01-22T00:00:17.098Z,8.75
2023-01-22T00:02:45.082Z,9.52
2023-01-22T00:05:14.216Z,8.38
2023-01-22T00:07:42.166Z,8.32
2023-01-22T00:10:12.031Z,8.38
2023-01-22T00:12:39.816Z,9.82
2023-01-22T00:15:08.839Z,14.32
2023-01-22T00:17:37.736Z,13.57
2023-01-22T00:20:06.749Z,17.55
2023-01-22T00:22:36.860Z,12.52
2023-01-22T00:25:05.354Z,14.00
2023-01-22T00:27:33.058Z,11.57
2023-01-22T00:30:00.877Z,13.73
2023-01-22T00:32:28.567Z,15.38
2023-01-22T00:34:56.289Z,14.65
2023-01-22T00:37:24.058Z,11.73
2023-01-22T00:39:53.207Z,13.18
2023-01-22T00:42:20.920Z,13.50
2023-01-22T00:44:48.621Z,10.48
2023-01-22T00:47:16.444Z,12.15
2023-01-22T00:49:44.212Z,9.95
2023-01-22T00:52:12.237Z,10.82
2023-01-22T00:54:40.000Z,11.65
2023-01-22T00:57:09.167Z,12.18
2023-01-22T00:59:36.869Z,10.68
2023-01-22T01:02:06.551Z,10.25
2023-01-22T01:04:34.463Z,11.10
2023-01-22T01:07:02.201Z,10.55
2023-01-22T01:09:30.032Z,11.82
2023-01-22T01:11:57.754Z,13.48
2023-01-22T01:14:26.964Z,12.10
2023-01-22T01:16:56.734Z,11.40
2023-01-22T01:19:24.576Z,11.35
2023-01-22T01:21:52.540Z,12.70
2023-01-22T01:24:20.223Z,13.55
2023-01-22T01:26:48.015Z,11.45
2023-01-22T01:29:16.001Z,12.60
2023-01-22T01:31:45.804Z,10.48
2023-01-22T01:34:13.852Z,11.98
2023-01-22T01:36:49.709Z,11.88
2023-01-22T01:39:17.876Z,11.65
2023-01-22T01:41:45.971Z,17.95
2023-01-22T01:44:15.724Z,14.32
2023-01-22T01:46:48.974Z,15.57
2023-01-22T01:49:21.057Z,13.73
2023-01-22T01:51:49.790Z,12.65
2023-01-22T01:54:18.297Z,14.35
2023-01-22T01:56:51.491Z,11.98
2023-01-22T01:59:22.071Z,14.00
2023-01-22T02:01:54.858Z,12.85
2023-01-22T02:04:24.707Z,14.07
2023-01-22T02:06:52.511Z,12.52
2023-01-22T02:09:20.445Z,12.63
2023-01-22T02:11:48.595Z,12.55
2023-01-22T02:14:20.230Z,13.82
2023-01-22T02:16:48.042Z,13.43
2023-01-22T02:19:17.326Z,14.25
2023-01-22T02:21:46.603Z,12.02
2023-01-22T02:24:17.051Z,14.90
2023-01-22T02:26:46.750Z,11.98
2023-01-22T02:29:15.567Z,14.88
2023-01-22T02:31:43.742Z,13.98
2023-01-22T02:34:12.336Z,14.65
2023-01-22T02:36:41.176Z,13.60
2023-01-22T02:39:10.372Z,15.50
2023-01-22T02:41:38.168Z,14.48
2023-01-22T02:44:07.407Z,14.70
2023-01-22T02:46:35.561Z,14.57
2023-01-22T02:49:03.767Z,13.40
2023-01-22T02:51:31.557Z,11.82
2023-01-22T02:53:59.336Z,12.88
2023-01-22T02:56:28.489Z,11.60
2023-01-22T02:58:56.181Z,10.77
2023-01-22T03:01:25.674Z,13.52
2023-01-22T03:03:55.367Z,12.07
2023-01-22T03:06:25.059Z,13.38
2023-01-22T03:08:55.325Z,12.48
2023-01-22T03:11:24.080Z,13.20
2023-01-22T03:14:11.127Z,13.23
2023-01-22T03:16:56.434Z,15.25
2023-01-22T03:19:42.457Z,11.50
2023-01-22T03:22:10.922Z,11.13
2023-01-22T03:24:38.669Z,11.60
2023-01-22T03:27:06.811Z,11.68
2023-01-22T03:29:38.315Z,11.95
2023-01-22T03:32:07.155Z,13.98
2023-01-22T03:34:35.200Z,12.25
2023-01-22T03:37:03.560Z,13.88
2023-01-22T03:39:32.544Z,13.60
2023-01-22T03:42:00.368Z,13.38
2023-01-22T03:44:28.172Z,14.40
2023-01-22T03:46:57.531Z,12.07
2023-01-22T03:49:25.291Z,12.40
2023-01-22T03:51:53.124Z,10.38
2023-01-22T03:54:20.925Z,12.02
2023-01-22T03:56:48.665Z,11.57
2023-01-22T03:59:16.440Z,12.88
2023-01-22T04:01:44.357Z,12.85
2023-01-22T04:04:13.534Z,15.07
2023-01-22T04:06:41.333Z,14.00
2023-01-22T04:09:09.037Z,14.60
2023-01-22T04:11:36.878Z,12.02
2023-01-22T04:14:04.581Z,13.52
2023-01-22T04:16:32.340Z,11.57
2023-01-22T04:19:00.111Z,10.63
2023-01-22T04:21:29.231Z,11.20
2023-01-22T04:23:57.514Z,11.32
2023-01-22T04:26:25.440Z,12.45
2023-01-22T04:28:53.188Z,10.82
2023-01-22T04:31:21.118Z,8.48
2023-01-22T04:33:49.015Z,10.60
2023-01-22T04:36:18.086Z,11.50
2023-01-22T04:38:47.225Z,9.88
2023-01-22T04:41:15.017Z,10.05
2023-01-22T04:43:42.719Z,10.98
2023-01-22T04:46:10.577Z,11.02
2023-01-22T04:48:38.401Z,11.23
2023-01-22T04:51:06.430Z,11.75
2023-01-22T04:53:34.239Z,12.10
2023-01-22T04:56:03.338Z,10.10
2023-01-22T04:58:31.124Z,11.80
2023-01-22T05:00:59.200Z,9.23
2023-01-22T05:03:26.991Z,11.00
2023-01-22T05:05:54.720Z,10.38
2023-01-22T05:08:22.600Z,14.90
2023-01-22T05:10:50.383Z,9.57
2023-01-22T05:13:19.458Z,15.55
2023-01-22T05:15:47.220Z,12.55
2023-01-22T05:18:14.978Z,12.85
2023-01-22T05:20:42.758Z,12.77
2023-01-22T05:23:10.522Z,14.60
2023-01-22T05:25:38.336Z,12.55
2023-01-22T05:28:06.526Z,9.93
2023-01-22T05:30:35.837Z,10.05
2023-01-22T05:33:03.639Z,11.30
2023-01-22T05:35:31.485Z,10.80
2023-01-22T05:37:59.215Z,11.70
2023-01-22T05:40:27.033Z,12.32
2023-01-22T05:42:55.108Z,10.98
2023-01-22T05:45:22.954Z,8.25
2023-01-22T05:47:54.325Z,9.25
2023-01-22T05:50:22.751Z,9.85
2023-01-22T05:52:55.426Z,10.02
2023-01-22T05:55:23.328Z,10.53
2023-01-22T05:57:51.281Z,10.50
2023-01-22T06:00:19.909Z,11.07
2023-01-22T06:02:48.590Z,8.82
2023-01-22T06:05:17.927Z,10.05
2023-01-22T06:07:45.636Z,8.75
2023-01-22T06:10:13.509Z,8.93
2023-01-22T06:12:41.234Z,9.38
2023-01-22T06:15:10.333Z,10.23
2023-01-22T06:17:38.094Z,8.43
2023-01-22T06:20:06.716Z,10.20
2023-01-22T06:22:35.868Z,9.63
2023-01-22T06:25:03.910Z,10.80
2023-01-22T06:27:31.656Z,8.45
2023-01-22T06:29:59.434Z,10.13
2023-01-22T06:32:27.328Z,9.27
2023-01-22T06:34:55.060Z,9.60
2023-01-22T06:37:22.952Z,8.85
2023-01-22T06:39:52.214Z,14.27
2023-01-22T06:42:20.039Z,11.02
2023-01-22T06:44:47.880Z,10.15
2023-01-22T06:47:15.669Z,10.40
2023-01-22T06:49:43.368Z,8.85
2023-01-22T06:52:11.116Z,9.13
2023-01-22T06:54:38.887Z,11.80
2023-01-22T06:57:08.101Z,8.68
2023-01-22T06:59:37.180Z,10.73
2023-01-22T07:02:05.253Z,9.55
2023-01-22T07:04:33.105Z,8.52
2023-01-22T07:07:00.802Z,9.73
2023-01-22T07:09:28.479Z,7.57
2023-01-22T07:11:57.415Z,9.05
2023-01-22T07:14:36.576Z,10.27
2023-01-22T07:17:05.137Z,8.50
2023-01-22T07:19:33.127Z,10.35
2023-01-22T07:22:01.088Z,11.57
2023-01-22T07:24:28.793Z,10.25
2023-01-22T07:26:56.580Z,7.88
2023-01-22T07:29:24.350Z,7.90
2023-01-22T07:31:53.503Z,12.35
2023-01-22T07:34:21.468Z,10.60
2023-01-22T07:36:49.283Z,9.05
2023-01-22T07:39:17.124Z,9.25
2023-01-22T07:41:44.982Z,6.68
2023-01-22T07:44:13.243Z,10.00
2023-01-22T07:46:41.150Z,10.23
2023-01-22T07:49:11.760Z,9.43
2023-01-22T07:51:39.573Z,10.90
2023-01-22T07:54:07.327Z,9.45
2023-01-22T07:56:35.073Z,11.90
2023-01-22T07:59:02.843Z,8.85
2023-01-22T08:01:30.660Z,9.50
2023-01-22T08:03:58.439Z,8.65
2023-01-22T08:06:27.621Z,9.65
2023-01-22T08:08:55.321Z,11.07
2023-01-22T08:11:23.127Z,13.05
2023-01-22T08:13:50.845Z,16.20
2023-01-22T08:16:18.698Z,10.60
2023-01-22T08:18:46.479Z,12.70
2023-01-22T08:21:14.598Z,13.93
2023-01-22T08:23:47.546Z,14.25
2023-01-22T08:26:16.695Z,18.23
2023-01-22T08:28:44.524Z,17.73
2023-01-22T08:31:26.314Z,14.20
2023-01-22T08:33:55.442Z,13.45
2023-01-22T08:36:23.271Z,12.45
2023-01-22T08:38:52.390Z,12.90
2023-01-22T08:41:20.163Z,15.48
2023-01-22T08:43:47.855Z,15.40
2023-01-22T08:46:15.794Z,16.27
2023-01-22T08:48:44.352Z,21.35
2023-01-22T08:51:12.483Z,21.42
2023-01-22T08:53:40.315Z,19.98
2023-01-22T08:56:09.758Z,16.95
2023-01-22T08:58:37.479Z,16.95
2023-01-22T09:01:05.578Z,17.50
2023-01-22T09:03:33.317Z,16.40
2023-01-22T09:06:01.107Z,18.70
2023-01-22T09:08:28.871Z,15.43
2023-01-22T09:10:56.650Z,17.30
2023-01-22T09:13:25.790Z,22.63
2023-01-22T09:15:58.519Z,15.23
2023-01-22T09:18:26.815Z,15.63
2023-01-22T09:20:54.593Z,11.57
2023-01-22T09:23:22.601Z,12.95
2023-01-22T09:25:50.412Z,13.50
2023-01-22T09:28:18.156Z,11.85
2023-01-22T09:30:47.305Z,13.05
2023-01-22T09:33:15.132Z,13.25
2023-01-22T09:35:42.864Z,10.32
2023-01-22T09:38:14.073Z,11.60
2023-01-22T09:40:46.524Z,11.10
2023-01-22T09:43:25.780Z,9.05
2023-01-22T09:45:57.978Z,9.80
2023-01-22T09:48:33.058Z,8.32
2023-01-22T09:51:01.097Z,10.70
2023-01-22T09:53:30.828Z,10.15
2023-01-22T09:55:59.225Z,9.38
2023-01-22T09:58:27.978Z,6.40
2023-01-22T10:01:00.542Z,9.52
2023-01-22T10:03:33.499Z,6.60
2023-01-22T10:06:05.629Z,8.97
2023-01-22T10:08:35.667Z,7.90
2023-01-22T10:11:04.140Z,6.93
2023-01-22T10:13:34.940Z,8.07
2023-01-22T10:16:04.764Z,8.95
2023-01-22T10:18:40.870Z,8.75
2023-01-22T10:21:18.712Z,7.65
2023-01-22T10:23:47.031Z,5.95
2023-01-22T10:26:18.727Z,7.53
2023-01-22T10:28:49.079Z,8.85
2023-01-22T10:31:26.270Z,7.47
2023-01-22T10:33:59.452Z,8.77
2023-01-22T10:36:27.518Z,9.18
2023-01-22T10:39:12.153Z,7.97
2023-01-22T10:41:40.955Z,8.52
2023-01-22T10:44:10.441Z,8.27
2023-01-22T10:46:39.669Z,7.13
2023-01-22T10:49:08.426Z,8.00
2023-01-22T10:51:38.756Z,7.95
2023-01-22T10:54:20.819Z,9.73
2023-01-22T10:56:49.755Z,9.38
2023-01-22T10:59:22.998Z,8.32
2023-01-22T11:01:58.448Z,7.75
2023-01-22T11:04:28.401Z,8.05
2023-01-22T11:06:59.075Z,9.40
2023-01-22T11:09:33.782Z,8.27
2023-01-22T11:12:10.758Z,7.60
2023-01-22T11:14:40.489Z,8.57
2023-01-22T11:17:18.996Z,8.68
2023-01-22T11:19:55.162Z,10.05
2023-01-22T11:22:27.716Z,7.95
2023-01-22T11:24:55.499Z,9.02
2023-01-22T11:27:45.871Z,7.63
2023-01-22T11:30:38.555Z,10.10
2023-01-22T11:33:21.053Z,8.15
2023-01-22T11:35:54.744Z,8.60
2023-01-22T11:38:30.928Z,9.25
2023-01-22T11:41:14.349Z,9.68
2023-01-22T11:43:56.674Z,8.02
2023-01-22T11:46:39.006Z,9.30
2023-01-22T11:49:19.316Z,7.88
2023-01-22T11:51:56.561Z,9.15
2023-01-22T11:54:35.189Z,7.43
2023-01-22T11:57:18.041Z,9.35
2023-01-22T12:00:04.515Z,7.77
2023-01-22T12:02:50.507Z,9.13
2023-01-22T12:05:33.197Z,8.18
2023-01-22T12:08:14.700Z,7.88
2023-01-22T12:10:57.494Z,7.88
2023-01-22T12:13:43.822Z,6.68
2023-01-22T12:16:22.358Z,9.13
2023-01-22T12:19:12.994Z,8.52
2023-01-22T12:21:54.118Z,9.27
2023-01-22T12:24:27.919Z,8.63
2023-01-22T12:27:02.434Z,7.45
2023-01-22T12:29:34.009Z,8.02
2023-01-22T12:32:08.959Z,6.72
2023-01-22T12:34:42.888Z,7.95
2023-01-22T12:37:17.033Z,7.78
2023-01-22T12:39:51.711Z,7.88
2023-01-22T12:42:31.982Z,7.32
2023-01-22T12:45:08.212Z,7.20
2023-01-22T12:47:42.025Z,8.65
2023-01-22T12:50:18.815Z,7.40
2023-01-22T12:52:59.540Z,6.55
2023-01-22T12:55:34.840Z,7.90
2023-01-22T12:58:03.476Z,7.75
2023-01-22T13:00:35.502Z,7.30
2023-01-22T13:03:05.127Z,9.30
2023-01-22T13:05:42.485Z,7.15
2023-01-22T13:08:26.341Z,8.10
2023-01-22T13:13:27.697Z,6.13
2023-01-22T13:15:58.649Z,6.88
2023-01-22T13:18:29.163Z,7.20
2023-01-22T13:21:02.798Z,7.85
2023-01-22T13:23:34.269Z,7.60
2023-01-22T13:26:02.960Z,6.85
2023-01-22T13:28:31.431Z,7.03
2023-01-22T13:31:01.982Z,7.97
2023-01-22T13:33:30.147Z,7.28
2023-01-22T13:35:59.678Z,7.80
2023-01-22T13:38:29.656Z,7.53
2023-01-22T13:41:00.948Z,7.47
2023-01-22T13:43:29.227Z,5.78
2023-01-22T13:45:58.151Z,5.57
2023-01-22T13:48:27.662Z,8.77
2023-01-22T13:50:58.573Z,7.78
2023-01-22T13:53:31.751Z,6.32
2023-01-22T13:56:01.487Z,6.88
2023-01-22T13:58:47.149Z,7.38
2023-01-22T14:01:28.067Z,7.28
2023-01-22T14:04:00.298Z,8.35
2023-01-22T14:06:28.758Z,6.75
2023-01-22T14:08:58.775Z,6.63
2023-01-22T14:11:39.649Z,7.57
2023-01-22T14:14:17.419Z,6.70
2023-01-22T14:16:45.391Z,6.57
2023-01-22T14:19:13.501Z,6.90
2023-01-22T14:21:41.221Z,7.57
2023-01-22T14:24:09.703Z,6.65
2023-01-22T14:26:38.909Z,6.50
2023-01-22T14:29:06.755Z,8.02
2023-01-22T14:31:34.478Z,7.88
2023-01-22T14:34:02.316Z,6.32
2023-01-22T14:36:30.167Z,6.80
2023-01-22T14:38:58.878Z,6.38
2023-01-22T14:41:26.729Z,5.80
2023-01-22T14:43:56.772Z,6.65
2023-01-22T14:46:24.600Z,7.15
2023-01-22T14:48:52.410Z,5.90
2023-01-22T14:51:20.198Z,7.32
2023-01-22T14:53:47.923Z,6.88
2023-01-22T14:56:15.678Z,6.50
2023-01-22T14:58:43.483Z,6.63
2023-01-22T15:01:20.544Z,7.47
2023-01-22T15:03:48.465Z,7.32
2023-01-22T15:06:16.250Z,7.55
2023-01-22T15:08:44.066Z,6.60
2023-01-22T15:11:11.947Z,6.82
2023-01-22T15:13:39.674Z,7.00
2023-01-22T15:16:09.144Z,6.00
2023-01-22T15:18:39.654Z,7.55
2023-01-22T15:21:08.172Z,6.13
2023-01-22T15:23:35.996Z,6.60
2023-01-22T15:26:06.003Z,6.25
2023-01-22T15:28:34.003Z,7.65
2023-01-22T15:31:07.575Z,6.85
2023-01-22T15:36:05.898Z,6.18
2023-01-22T15:38:33.671Z,6.53
2023-01-22T15:41:07.050Z,6.18
2023-01-22T15:43:34.906Z,5.72
2023-01-22T15:46:02.805Z,5.78
2023-01-22T15:48:30.569Z,7.80
2023-01-22T15:51:09.040Z,6.28
2023-01-22T15:53:36.926Z,7.82
2023-01-22T15:56:06.389Z,6.55
2023-01-22T15:58:34.876Z,6.90
2023-01-22T16:01:03.010Z,7.35
2023-01-22T16:03:31.151Z,6.97
2023-01-22T16:06:10.524Z,7.40
2023-01-22T16:08:38.353Z,7.43
2023-01-22T16:11:06.822Z,5.75
2023-01-22T16:13:34.909Z,5.28
2023-01-22T16:16:04.784Z,6.88
2023-01-22T16:18:33.327Z,6.65
2023-01-22T16:21:01.905Z,6.97
2023-01-22T16:23:31.631Z,5.57
2023-01-22T16:26:01.122Z,5.90
2023-01-22T16:28:28.947Z,7.90
2023-01-22T16:30:56.852Z,6.55
2023-01-22T16:33:28.823Z,6.95
2023-01-22T16:36:00.264Z,7.20
2023-01-22T16:38:28.665Z,8.00
2023-01-22T16:41:08.869Z,7.97
2023-01-22T16:43:37.160Z,6.95
2023-01-22T16:46:05.246Z,7.53
2023-01-22T16:48:33.147Z,11.95
2023-01-22T16:51:01.027Z,14.13
2023-01-22T16:53:28.854Z,14.80
2023-01-22T16:55:58.056Z,17.30
2023-01-22T16:58:25.773Z,17.45
2023-01-22T17:00:53.650Z,17.02
2023-01-22T17:03:21.369Z,20.20
2023-01-22T17:05:49.937Z,14.80
2023-01-22T17:08:17.640Z,10.35
2023-01-22T17:10:45.362Z,10.10
2023-01-22T17:13:14.521Z,10.05
2023-01-22T17:15:43.707Z,7.45
2023-01-22T17:18:11.460Z,7.78
2023-01-22T17:20:39.313Z,9.00
2023-01-22T17:23:07.427Z,13.30
2023-01-22T17:25:35.205Z,14.40
2023-01-22T17:28:02.984Z,16.77
2023-01-22T17:30:32.126Z,18.30
2023-01-22T17:32:59.866Z,18.52
2023-01-22T17:35:27.671Z,15.70
2023-01-22T17:37:55.397Z,14.70
2023-01-22T17:40:23.095Z,17.15
2023-01-22T17:42:50.816Z,14.98
2023-01-22T17:45:19.021Z,14.02
2023-01-22T17:47:48.369Z,16.58
2023-01-22T17:50:16.945Z,23.92
2023-01-22T17:52:44.772Z,24.85
2023-01-22T17:55:12.658Z,28.65
2023-01-22T17:57:41.454Z,28.00
2023-01-22T18:00:11.095Z,32.13
2023-01-22T18:02:38.932Z,31.27
2023-01-22T18:05:10.399Z,39.33
2023-01-22T18:07:38.301Z,33.83
2023-01-22T18:10:06.593Z,32.53
2023-01-22T18:12:34.434Z,30.20
2023-01-22T18:15:02.184Z,19.27
2023-01-22T18:17:29.936Z,15.15
2023-01-22T18:19:57.838Z,12.95
2023-01-22T18:22:26.969Z,13.82
2023-01-22T18:24:54.826Z,13.18
2023-01-22T18:27:22.574Z,11.43
2023-01-22T18:29:50.411Z,9.02
2023-01-22T18:32:18.644Z,9.50
2023-01-22T18:34:46.611Z,10.48
2023-01-22T18:37:14.327Z,7.90
2023-01-22T18:39:43.574Z,9.13
2023-01-22T18:42:11.378Z,13.18
2023-01-22T18:44:39.853Z,11.85
2023-01-22T18:47:11.068Z,11.68
2023-01-22T18:49:38.999Z,11.02
2023-01-22T18:52:06.819Z,11.88
2023-01-22T18:54:34.561Z,13.27
2023-01-22T18:57:03.652Z,20.08
2023-01-22T18:59:31.535Z,23.77
2023-01-22T19:02:00.033Z,19.25
2023-01-22T19:04:28.985Z,14.82
2023-01-22T19:06:57.278Z,13.98
2023-01-22T19:09:26.837Z,12.50
2023-01-22T19:11:55.608Z,14.55
2023-01-22T19:14:25.177Z,14.98
2023-01-22T19:16:54.211Z,18.13
2023-01-22T19:19:22.901Z,14.82
2023-01-22T19:21:54.725Z,19.00
2023-01-22T19:24:24.920Z,19.05
2023-01-22T19:26:54.700Z,15.60
2023-01-22T19:29:25.317Z,14.35
2023-01-22T19:31:54.473Z,15.35
2023-01-22T19:34:24.688Z,16.35
2023-01-22T19:36:54.389Z,16.58
2023-01-22T19:39:22.461Z,12.63
2023-01-22T19:41:50.305Z,12.45
2023-01-22T19:44:18.438Z,13.45
2023-01-22T19:46:47.852Z,13.40
2023-01-22T19:49:15.637Z,12.88
2023-01-22T19:51:43.561Z,13.45
2023-01-22T19:54:12.018Z,11.50
2023-01-22T19:56:42.327Z,12.68
2023-01-22T19:59:12.964Z,11.30
2023-01-22T20:01:40.792Z,11.68
2023-01-22T20:04:14.343Z,13.85
2023-01-22T20:09:13.268Z,11.57
2023-01-22T20:11:41.179Z,11.68
2023-01-22T20:14:08.947Z,9.20
2023-01-22T20:16:36.770Z,10.95
2023-01-22T20:19:04.886Z,9.77
2023-01-22T20:21:34.133Z,9.98
2023-01-22T20:24:01.917Z,11.27
2023-01-22T20:26:29.631Z,10.65
2023-01-22T20:28:57.384Z,9.18
2023-01-22T20:31:25.503Z,11.52
2023-01-22T20:33:55.535Z,10.52
2023-01-22T20:36:24.508Z,11.88
2023-01-22T20:38:54.559Z,12.13
2023-01-22T20:41:23.940Z,12.00
2023-01-22T20:43:51.782Z,15.82
2023-01-22T20:46:21.376Z,14.70
2023-01-22T20:48:50.369Z,15.65
2023-01-22T20:51:20.844Z,17.63
2023-01-22T20:53:50.506Z,22.48
2023-01-22T20:56:22.626Z,26.27
2023-01-22T20:58:55.285Z,17.23
2023-01-22T21:01:23.085Z,16.63
2023-01-22T21:03:50.960Z,14.55
2023-01-22T21:06:20.862Z,13.15
2023-01-22T21:08:51.352Z,13.68
2023-01-22T21:11:22.067Z,11.20
2023-01-22T21:13:51.643Z,10.23
2023-01-22T21:16:23.067Z,8.55
2023-01-22T21:18:50.906Z,9.45
2023-01-22T21:21:20.077Z,7.90
2023-01-22T21:23:48.936Z,8.30
2023-01-22T21:26:19.171Z,9.68
2023-01-22T21:28:49.283Z,10.07
2023-01-22T21:31:20.063Z,10.68
2023-01-22T21:33:49.449Z,9.98
2023-01-22T21:36:18.453Z,12.55
2023-01-22T21:38:47.683Z,11.23
2023-01-22T21:41:18.251Z,9.48
2023-01-22T21:44:06.068Z,11.90
2023-01-22T21:46:37.256Z,15.02
2023-01-22T21:49:16.284Z,15.13
2023-01-22T21:51:46.293Z,20.10
2023-01-22T21:54:15.186Z,16.30
2023-01-22T21:56:43.102Z,17.23
2023-01-22T21:59:12.561Z,15.75
2023-01-22T22:01:40.691Z,21.63
2023-01-22T22:04:09.774Z,22.95
2023-01-22T22:06:38.034Z,21.15
2023-01-22T22:09:07.921Z,18.80
2023-01-22T22:11:35.771Z,19.27
2023-01-22T22:14:05.662Z,16.92
2023-01-22T22:16:35.207Z,16.33
2023-01-22T22:19:03.007Z,14.30
2023-01-22T22:21:31.774Z,14.52
2023-01-22T22:23:59.546Z,14.25
2023-01-22T22:26:27.553Z,16.23
2023-01-22T22:28:55.718Z,22.88
2023-01-22T22:31:24.052Z,26.98
2023-01-22T22:33:55.585Z,19.42
2023-01-22T22:36:25.208Z,20.75
2023-01-22T22:38:53.197Z,17.10
2023-01-22T22:41:22.758Z,15.13
2023-01-22T22:43:52.623Z,19.35
2023-01-22T22:46:22.900Z,20.10
2023-01-22T22:48:53.278Z,25.23
2023-01-22T22:51:23.573Z,17.85
2023-01-22T22:53:54.360Z,15.57
2023-01-22T22:56:22.485Z,16.73
2023-01-22T22:58:50.257Z,18.25
2023-01-22T23:01:19.831Z,26.83
2023-01-22T23:03:47.844Z,17.95
2023-01-22T23:06:21.253Z,17.70
2023-01-22T23:08:52.370Z,21.13
2023-01-22T23:11:22.568Z,16.38
2023-01-22T23:13:50.540Z,15.57
2023-01-22T23:16:20.659Z,17.85
2023-01-22T23:18:50.001Z,14.80
2023-01-22T23:21:21.193Z,16.35
2023-01-22T23:23:49.119Z,17.38
2023-01-22T23:26:19.561Z,16.65
2023-01-22T23:28:48.474Z,15.38
2023-01-22T23:31:17.976Z,14.68
2023-01-22T23:33:45.741Z,13.90
2023-01-22T23:36:15.521Z,10.20
2023-01-22T23:38:45.796Z,12.65
2023-01-22T23:41:16.767Z,16.35
2023-01-22T23:43:44.826Z,15.68
2023-01-22T23:46:15.256Z,16.98
2023-01-22T23:48:43.509Z,17.13
2023-01-22T23:51:13.354Z,13.70
2023-01-22T23:53:43.059Z,13.90
2023-01-22T23:56:13.347Z,15.57
2023-01-22T23:58:41.817Z,14.23
